createdAt,value
2019-01-25T00:02:01.635Z,94953.66
2019-01-25T00:04:33.079Z,94957.91
2019-01-25T00:07:04.514Z,94958.38
2019-01-25T00:09:35.961Z,94955.13
2019-01-25T00:12:07.452Z,94957.23
2019-01-25T00:14:38.897Z,94949.38
2019-01-25T00:17:10.414Z,94953.56
2019-01-25T00:19:41.869Z,94950.91
2019-01-25T00:22:13.332Z,94944.30
2019-01-25T00:24:44.771Z,94953.73
2019-01-25T00:27:16.504Z,94959.61
2019-01-25T00:29:47.934Z,94958.86
2019-01-25T00:32:21.527Z,94954.20
2019-01-25T00:34:52.962Z,94948.67
2019-01-25T00:37:24.418Z,94954.33
2019-01-25T00:39:55.873Z,94958.95
2019-01-25T00:42:27.403Z,94965.11
2019-01-25T00:44:58.840Z,94961.14
2019-01-25T00:47:30.293Z,94968.91
2019-01-25T00:50:01.723Z,94967.64
2019-01-25T00:52:33.191Z,94980.31
2019-01-25T00:55:04.764Z,94970.76
2019-01-25T00:57:36.249Z,94973.44
2019-01-25T01:00:13.957Z,94978.59
2019-01-25T01:02:45.425Z,94978.32
2019-01-25T01:05:17.161Z,94986.25
2019-01-25T01:07:51.030Z,94989.19
2019-01-25T01:10:23.166Z,94980.31
2019-01-25T01:12:54.938Z,94982.83
2019-01-25T01:15:26.367Z,94994.19
2019-01-25T01:17:57.819Z,94993.97
2019-01-25T01:20:29.230Z,94994.61
2019-01-25T01:23:01.602Z,94998.13
2019-01-25T01:25:33.025Z,94990.97
2019-01-25T01:28:04.484Z,95000.84
2019-01-25T01:30:35.907Z,95002.48
2019-01-25T01:33:07.375Z,95003.28
2019-01-25T01:35:38.741Z,95003.86
2019-01-25T01:38:10.205Z,95001.81
2019-01-25T01:40:41.630Z,95003.38
2019-01-25T01:43:14.265Z,95004.69
2019-01-25T01:45:45.847Z,95004.05
2019-01-25T01:48:17.284Z,95011.95
2019-01-25T01:50:49.913Z,95011.36
2019-01-25T01:53:21.371Z,95013.66
2019-01-25T01:55:52.783Z,95010.75
2019-01-25T01:58:24.281Z,95004.02
2019-01-25T02:00:55.766Z,95010.67
2019-01-25T02:03:29.009Z,95008.45
2019-01-25T02:06:00.417Z,95014.29
2019-01-25T02:08:31.880Z,95005.52
2019-01-25T02:11:03.306Z,95007.77
2019-01-25T02:13:34.765Z,95009.01
2019-01-25T02:16:08.933Z,95018.02
2019-01-25T02:18:40.414Z,95009.80
2019-01-25T02:21:11.837Z,95019.03
2019-01-25T02:23:43.299Z,95019.31
2019-01-25T02:26:14.771Z,95016.20
2019-01-25T02:28:46.291Z,95021.79
2019-01-25T02:31:17.713Z,95019.27
2019-01-25T02:33:49.192Z,95017.84
2019-01-25T02:36:21.893Z,95015.53
2019-01-25T02:38:53.329Z,95019.27
2019-01-25T02:41:24.762Z,95016.63
2019-01-25T02:43:56.188Z,95018.58
2019-01-25T02:46:27.586Z,95017.45
2019-01-25T02:49:01.692Z,95018.83
2019-01-25T02:51:33.140Z,95024.11
2019-01-25T02:54:04.656Z,95021.63
2019-01-25T02:56:36.104Z,95024.16
2019-01-25T02:59:07.575Z,95021.05
2019-01-25T03:01:38.999Z,95025.19
2019-01-25T03:04:10.456Z,95031.19
2019-01-25T03:06:41.898Z,95031.43
2019-01-25T03:09:13.361Z,95025.06
2019-01-25T03:11:46.017Z,95030.66
2019-01-25T03:14:17.497Z,95032.13
2019-01-25T03:16:51.839Z,95035.67
2019-01-25T03:19:24.902Z,95034.09
2019-01-25T03:21:56.344Z,95042.37
2019-01-25T03:24:27.738Z,95045.72
2019-01-25T03:26:59.148Z,95046.54
2019-01-25T03:29:32.088Z,95044.81
2019-01-25T03:32:05.600Z,95056.53
2019-01-25T03:34:40.252Z,95051.75
2019-01-25T03:37:11.681Z,95057.11
2019-01-25T03:39:47.711Z,95053.29
2019-01-25T03:42:19.129Z,95057.21
2019-01-25T03:44:50.665Z,95056.41
2019-01-25T03:47:22.142Z,95056.53
2019-01-25T03:49:53.605Z,95063.13
2019-01-25T03:52:25.022Z,95064.80
2019-01-25T03:54:56.495Z,95065.09
2019-01-25T03:57:27.978Z,95072.83
2019-01-25T03:59:59.344Z,95072.21
2019-01-25T04:02:30.754Z,95075.13
2019-01-25T04:05:02.215Z,95073.48
2019-01-25T04:07:33.707Z,95074.38
2019-01-25T04:10:06.136Z,95071.41
2019-01-25T04:12:37.566Z,95073.77
2019-01-25T04:15:12.000Z,95073.17
2019-01-25T04:17:43.581Z,95079.16
2019-01-25T04:20:16.286Z,95076.55
2019-01-25T04:22:47.826Z,95076.61
2019-01-25T04:25:21.340Z,95068.92
2019-01-25T04:27:52.978Z,95080.98
2019-01-25T04:30:35.062Z,95069.67
2019-01-25T04:33:06.606Z,95075.00
2019-01-25T04:35:38.048Z,95074.45
2019-01-25T04:38:10.829Z,95073.92
2019-01-25T04:40:42.328Z,95073.05
2019-01-25T04:43:13.762Z,95075.65
2019-01-25T04:45:45.209Z,95072.55
2019-01-25T04:48:17.194Z,95077.30
2019-01-25T04:50:48.647Z,95077.05
2019-01-25T04:53:20.083Z,95073.30
2019-01-25T04:55:51.482Z,95072.85
2019-01-25T04:58:22.911Z,95067.69
2019-01-25T05:00:54.383Z,95071.03
2019-01-25T05:03:25.828Z,95083.91
2019-01-25T05:05:57.271Z,95082.64
2019-01-25T05:08:28.738Z,95082.58
2019-01-25T05:11:00.242Z,95081.76
2019-01-25T05:13:31.820Z,95078.38
2019-01-25T05:16:09.682Z,95084.41
2019-01-25T05:18:44.173Z,95090.84
2019-01-25T05:21:24.559Z,95082.69
2019-01-25T05:23:56.012Z,95084.05
2019-01-25T05:26:27.465Z,95091.09
2019-01-25T05:28:58.810Z,95088.67
2019-01-25T05:31:30.777Z,95084.95
2019-01-25T05:34:02.219Z,95088.30
2019-01-25T05:36:33.680Z,95087.09
2019-01-25T05:39:07.960Z,95088.61
2019-01-25T05:41:39.358Z,95095.98
2019-01-25T05:44:10.788Z,95104.02
2019-01-25T05:46:42.287Z,95102.41
2019-01-25T05:49:13.715Z,95107.30
2019-01-25T05:51:45.092Z,95101.88
2019-01-25T05:54:16.552Z,95103.48
2019-01-25T05:56:48.019Z,95110.09
2019-01-25T05:59:24.398Z,95113.91
2019-01-25T06:01:55.867Z,95109.95
2019-01-25T06:04:35.179Z,95116.20
2019-01-25T06:07:11.132Z,95114.45
2019-01-25T06:09:42.557Z,95116.98
2019-01-25T06:12:14.017Z,95115.58
2019-01-25T06:14:45.448Z,95121.72
2019-01-25T06:17:16.895Z,95121.16
2019-01-25T06:19:48.355Z,95127.77
2019-01-25T06:22:20.047Z,95130.41
2019-01-25T06:24:51.442Z,95126.95
2019-01-25T06:27:22.919Z,95127.89
2019-01-25T06:29:56.148Z,95127.14
2019-01-25T06:32:27.687Z,95131.20
2019-01-25T06:34:59.107Z,95135.48
2019-01-25T06:37:30.556Z,95132.72
2019-01-25T06:40:02.022Z,95135.58
2019-01-25T06:42:33.487Z,95141.62
2019-01-25T06:45:06.962Z,95142.48
2019-01-25T06:47:38.432Z,95135.86
2019-01-25T06:50:11.510Z,95141.31
2019-01-25T06:52:43.006Z,95145.86
2019-01-25T06:55:16.675Z,95144.44
2019-01-25T06:58:07.074Z,95147.73
2019-01-25T07:00:41.538Z,95154.75
2019-01-25T07:03:13.962Z,95151.53
2019-01-25T07:05:45.394Z,95151.00
2019-01-25T07:08:18.628Z,95150.38
2019-01-25T07:10:50.140Z,95154.77
2019-01-25T07:13:21.510Z,95150.04
2019-01-25T07:15:52.967Z,95153.42
2019-01-25T07:18:25.412Z,95158.92
2019-01-25T07:20:56.853Z,95162.31
2019-01-25T07:23:28.324Z,95161.46
2019-01-25T07:25:59.759Z,95163.59
2019-01-25T07:28:31.232Z,95159.80
2019-01-25T07:31:02.654Z,95158.73
2019-01-25T07:33:34.126Z,95148.47
2019-01-25T07:36:06.021Z,95160.63
2019-01-25T07:38:37.487Z,95163.90
2019-01-25T07:41:08.886Z,95166.02
2019-01-25T07:43:40.352Z,95170.20
2019-01-25T07:46:11.804Z,95180.28
2019-01-25T07:48:44.486Z,95176.91
2019-01-25T07:51:15.969Z,95175.58
2019-01-25T07:53:47.330Z,95187.91
2019-01-25T07:56:18.800Z,95187.45
2019-01-25T07:58:52.683Z,95193.01
2019-01-25T08:01:24.174Z,95185.75
2019-01-25T08:03:55.641Z,95183.77
2019-01-25T08:06:27.060Z,95196.45
2019-01-25T08:08:58.537Z,95197.50
2019-01-25T08:11:30.088Z,95200.56
2019-01-25T08:14:01.616Z,95202.64
2019-01-25T08:16:33.024Z,95203.98
2019-01-25T08:19:04.478Z,95200.64
2019-01-25T08:21:36.219Z,95202.76
2019-01-25T08:24:07.687Z,95216.38
2019-01-25T08:26:39.421Z,95212.82
2019-01-25T08:29:10.890Z,95219.05
2019-01-25T08:31:42.350Z,95218.14
2019-01-25T08:34:14.102Z,95217.91
2019-01-25T08:36:45.587Z,95230.98
2019-01-25T08:39:17.054Z,95222.92
2019-01-25T08:41:48.573Z,95233.45
2019-01-25T08:44:20.158Z,95224.97
2019-01-25T08:46:52.572Z,95227.91
2019-01-25T08:49:25.185Z,95228.59
2019-01-25T08:51:56.720Z,95222.50
2019-01-25T08:54:30.386Z,95227.45
2019-01-25T08:57:01.890Z,95228.25
2019-01-25T08:59:33.396Z,95229.90
2019-01-25T09:02:05.630Z,95235.64
2019-01-25T09:04:37.108Z,95222.52
2019-01-25T09:07:08.518Z,95227.42
2019-01-25T09:09:39.983Z,95225.22
2019-01-25T09:12:11.512Z,95227.41
2019-01-25T09:14:42.953Z,95234.19
2019-01-25T09:17:15.942Z,95239.16
2019-01-25T09:19:47.588Z,95244.05
2019-01-25T09:22:19.029Z,95233.59
2019-01-25T09:24:50.501Z,95240.36
2019-01-25T09:27:21.967Z,95246.17
2019-01-25T09:29:53.506Z,95241.17
2019-01-25T09:32:24.955Z,95247.75
2019-01-25T09:34:56.501Z,95256.83
2019-01-25T09:37:30.986Z,95250.38
2019-01-25T09:40:02.524Z,95257.77
2019-01-25T09:42:34.183Z,95258.66
2019-01-25T09:45:06.996Z,95256.19
2019-01-25T09:47:38.529Z,95255.28
2019-01-25T09:50:13.553Z,95257.70
2019-01-25T09:52:45.016Z,95262.47
2019-01-25T09:55:19.608Z,95264.53
2019-01-25T09:57:52.527Z,95268.11
2019-01-25T10:00:50.258Z,95269.81
2019-01-25T10:03:23.889Z,95273.66
2019-01-25T10:05:55.360Z,95270.25
2019-01-25T10:08:26.876Z,95268.73
2019-01-25T10:10:58.322Z,95275.07
2019-01-25T10:13:29.796Z,95273.56
2019-01-25T10:16:01.238Z,95276.77
2019-01-25T10:18:32.835Z,95276.89
2019-01-25T10:21:04.368Z,95279.38
2019-01-25T10:23:39.262Z,95276.15
2019-01-25T10:26:11.009Z,95276.45
2019-01-25T10:28:42.488Z,95281.33
2019-01-25T10:31:14.929Z,95283.51
2019-01-25T10:33:48.453Z,95282.72
2019-01-25T10:36:19.734Z,95271.42
2019-01-25T10:38:51.185Z,95283.09
2019-01-25T10:41:23.173Z,95284.59
2019-01-25T10:43:54.748Z,95282.23
2019-01-25T10:46:26.216Z,95283.34
2019-01-25T10:48:57.653Z,95276.98
2019-01-25T10:51:32.168Z,95284.12
2019-01-25T10:54:03.610Z,95280.73
2019-01-25T10:56:36.572Z,95278.50
2019-01-25T10:59:07.997Z,95281.35
2019-01-25T11:01:39.489Z,95273.56
2019-01-25T11:04:11.690Z,95266.33
2019-01-25T11:06:43.324Z,95269.33
2019-01-25T11:09:14.741Z,95266.33
2019-01-25T11:11:46.294Z,95264.11
2019-01-25T11:14:19.225Z,95259.23
2019-01-25T11:16:50.729Z,95257.61
2019-01-25T11:19:24.468Z,95255.13
2019-01-25T11:21:55.969Z,95254.48
2019-01-25T11:24:27.434Z,95256.66
2019-01-25T11:27:00.446Z,95260.29
2019-01-25T11:29:31.885Z,95255.80
2019-01-25T11:32:03.324Z,95262.94
2019-01-25T11:34:34.801Z,95260.19
2019-01-25T11:37:06.280Z,95263.27
2019-01-25T11:39:37.771Z,95261.33
2019-01-25T11:42:09.223Z,95260.97
2019-01-25T11:44:40.720Z,95266.88
2019-01-25T11:47:12.171Z,95262.69
2019-01-25T11:49:43.632Z,95268.05
2019-01-25T11:52:15.170Z,95266.55
2019-01-25T11:54:46.626Z,95267.37
2019-01-25T11:57:18.302Z,95268.00
2019-01-25T11:59:52.479Z,95267.00
2019-01-25T12:02:25.886Z,95263.75
2019-01-25T12:04:58.827Z,95266.20
2019-01-25T12:07:30.312Z,95271.16
2019-01-25T12:10:02.330Z,95267.53
2019-01-25T12:12:33.819Z,95264.28
2019-01-25T12:15:07.695Z,95274.97
2019-01-25T12:17:39.265Z,95276.30
2019-01-25T12:20:17.385Z,95258.11
2019-01-25T12:22:48.832Z,95262.54
2019-01-25T12:25:20.383Z,95262.84
2019-01-25T12:27:51.848Z,95255.70
2019-01-25T12:30:38.240Z,95256.02
2019-01-25T12:33:10.894Z,95250.75
2019-01-25T12:35:45.392Z,95243.46
2019-01-25T12:38:16.863Z,95242.06
2019-01-25T12:40:48.322Z,95248.82
2019-01-25T12:43:23.967Z,95243.09
2019-01-25T12:45:52.996Z,95238.16
2019-01-25T12:48:24.459Z,95238.66
2019-01-25T12:51:52.400Z,95243.29
2019-01-25T12:54:23.949Z,95241.01
2019-01-25T12:56:55.529Z,95244.59
2019-01-25T12:59:26.932Z,95243.39
2019-01-25T13:01:59.351Z,95247.70
2019-01-25T13:04:30.867Z,95256.44
2019-01-25T13:07:02.368Z,95252.43
2019-01-25T13:09:33.956Z,95258.69
2019-01-25T13:12:05.618Z,95254.19
2019-01-25T13:14:38.075Z,95254.25
2019-01-25T13:17:09.614Z,95256.80
2019-01-25T13:19:41.076Z,95252.80
2019-01-25T13:22:12.604Z,95250.98
2019-01-25T13:24:44.020Z,95259.52
2019-01-25T13:27:18.432Z,95269.08
2019-01-25T13:29:51.151Z,95267.41
2019-01-25T13:32:25.792Z,95259.03
2019-01-25T13:34:57.252Z,95265.69
2019-01-25T13:37:31.506Z,95264.09
2019-01-25T13:40:01.986Z,95263.89
2019-01-25T13:42:33.906Z,95267.70
2019-01-25T13:45:05.783Z,95253.91
2019-01-25T13:47:37.332Z,95256.33
2019-01-25T13:50:12.137Z,95255.34
2019-01-25T13:52:43.571Z,95257.71
2019-01-25T13:55:16.119Z,95258.61
2019-01-25T13:57:48.647Z,95257.45
2019-01-25T14:00:31.771Z,95260.91
2019-01-25T14:03:03.411Z,95261.78
2019-01-25T14:05:34.897Z,95263.88
2019-01-25T14:08:06.472Z,95267.01
2019-01-25T14:10:38.477Z,95259.65
2019-01-25T14:13:11.560Z,95264.84
2019-01-25T14:15:43.134Z,95267.44
2019-01-25T14:18:14.596Z,95269.84
2019-01-25T14:20:46.060Z,95268.09
2019-01-25T14:23:17.489Z,95271.85
2019-01-25T14:25:48.996Z,95269.72
2019-01-25T14:28:20.623Z,95276.58
2019-01-25T14:30:52.157Z,95279.37
2019-01-25T14:33:23.607Z,95286.22
2019-01-25T14:35:55.085Z,95291.55
2019-01-25T14:38:26.599Z,95292.08
2019-01-25T14:40:58.095Z,95295.34
2019-01-25T14:43:29.639Z,95301.59
2019-01-25T14:46:01.147Z,95311.09
2019-01-25T14:48:32.698Z,95312.59
2019-01-25T14:51:04.178Z,95315.00
2019-01-25T14:53:35.639Z,95312.91
2019-01-25T14:56:07.189Z,95310.30
2019-01-25T14:58:38.709Z,95314.79
2019-01-25T15:01:10.290Z,95318.52
2019-01-25T15:03:41.783Z,95320.11
2019-01-25T15:06:14.667Z,95320.38
2019-01-25T15:08:46.145Z,95313.61
2019-01-25T15:11:17.605Z,95324.77
2019-01-25T15:13:50.343Z,95324.45
2019-01-25T15:16:21.800Z,95333.69
2019-01-25T15:18:53.228Z,95332.28
2019-01-25T15:21:24.711Z,95325.94
2019-01-25T15:23:56.163Z,95330.91
2019-01-25T15:26:29.314Z,95331.13
2019-01-25T15:29:00.819Z,95329.97
2019-01-25T15:31:33.287Z,95330.94
2019-01-25T15:34:06.478Z,95344.97
2019-01-25T15:36:37.934Z,95338.00
2019-01-25T15:39:11.263Z,95344.23
2019-01-25T15:41:42.747Z,95335.27
2019-01-25T15:44:14.195Z,95333.66
2019-01-25T15:46:47.339Z,95333.30
2019-01-25T15:49:18.807Z,95323.48
2019-01-25T15:51:50.297Z,95327.75
2019-01-25T15:54:21.731Z,95332.37
2019-01-25T15:56:53.251Z,95332.41
2019-01-25T15:59:24.715Z,95331.91
2019-01-25T16:01:56.199Z,95332.85
2019-01-25T16:04:34.618Z,95340.91
2019-01-25T16:07:00.938Z,95343.02
2019-01-25T16:09:32.374Z,95352.92
2019-01-25T16:12:03.865Z,95362.04
2019-01-25T16:14:35.355Z,95366.19
2019-01-25T16:17:06.785Z,95358.67
2019-01-25T16:19:38.211Z,95351.67
2019-01-25T16:22:10.999Z,95355.42
2019-01-25T16:24:42.398Z,95366.40
2019-01-25T16:27:13.866Z,95366.77
2019-01-25T16:29:45.361Z,95367.31
2019-01-25T16:32:16.799Z,95360.16
2019-01-25T16:34:49.202Z,95357.63
2019-01-25T16:37:20.678Z,95359.22
2019-01-25T16:39:52.187Z,95351.97
2019-01-25T16:42:23.659Z,95363.77
2019-01-25T16:44:55.127Z,95364.77
2019-01-25T16:47:26.815Z,95369.11
2019-01-25T16:49:58.377Z,95368.46
2019-01-25T16:52:29.916Z,95366.31
2019-01-25T16:55:01.364Z,95363.36
2019-01-25T16:57:35.199Z,95363.94
2019-01-25T17:00:16.270Z,95368.83
2019-01-25T17:02:47.769Z,95366.92
2019-01-25T17:05:19.889Z,95365.28
2019-01-25T17:07:51.376Z,95360.94
2019-01-25T17:10:22.825Z,95354.17
2019-01-25T17:12:55.287Z,95356.66
2019-01-25T17:15:26.850Z,95364.36
2019-01-25T17:17:59.301Z,95363.99
2019-01-25T17:20:33.109Z,95362.47
2019-01-25T17:23:04.986Z,95361.56
2019-01-25T17:25:36.470Z,95366.52
2019-01-25T17:28:10.062Z,95363.63
2019-01-25T17:30:42.909Z,95369.86
2019-01-25T17:33:16.579Z,95375.02
2019-01-25T17:35:48.157Z,95369.43
2019-01-25T17:38:19.593Z,95370.58
2019-01-25T17:40:51.143Z,95372.89
2019-01-25T17:43:22.593Z,95368.95
2019-01-25T17:45:54.016Z,95375.94
2019-01-25T17:48:25.615Z,95373.63
2019-01-25T17:50:57.095Z,95376.30
2019-01-25T17:53:28.737Z,95378.83
2019-01-25T17:56:00.213Z,95371.55
2019-01-25T17:58:32.004Z,95368.34
2019-01-25T18:01:03.641Z,95372.70
2019-01-25T18:03:36.202Z,95374.73
2019-01-25T18:06:09.892Z,95374.52
2019-01-25T18:08:41.418Z,95372.63
2019-01-25T18:11:14.762Z,95377.36
2019-01-25T18:13:48.527Z,95375.95
2019-01-25T18:16:20.055Z,95382.83
2019-01-25T18:18:51.652Z,95383.13
2019-01-25T18:21:23.078Z,95384.41
2019-01-25T18:23:56.277Z,95391.44
2019-01-25T18:26:28.055Z,95385.21
2019-01-25T18:29:29.809Z,95386.25
2019-01-25T18:32:01.249Z,95390.64
2019-01-25T18:34:34.325Z,95393.03
2019-01-25T18:37:06.035Z,95393.13
2019-01-25T18:39:37.541Z,95392.69
2019-01-25T18:42:09.072Z,95396.31
2019-01-25T18:44:40.624Z,95391.63
2019-01-25T18:47:12.091Z,95390.72
2019-01-25T18:49:44.941Z,95382.63
2019-01-25T18:52:17.975Z,95390.66
2019-01-25T18:54:50.663Z,95398.52
2019-01-25T18:57:22.105Z,95397.70
2019-01-25T18:59:53.568Z,95398.19
2019-01-25T19:02:25.011Z,95395.31
2019-01-25T19:04:58.477Z,95401.17
2019-01-25T19:07:29.739Z,95401.33
2019-01-25T19:10:01.238Z,95406.49
2019-01-25T19:12:32.901Z,95411.80
2019-01-25T19:15:05.543Z,95414.78
2019-01-25T19:17:37.291Z,95413.94
2019-01-25T19:20:11.724Z,95424.35
2019-01-25T19:22:43.317Z,95428.38
2019-01-25T19:25:16.754Z,95423.11
2019-01-25T19:27:51.012Z,95421.73
2019-01-25T19:30:32.210Z,95419.27
2019-01-25T19:33:05.469Z,95426.59
2019-01-25T19:35:37.043Z,95425.16
2019-01-25T19:38:10.279Z,95429.89
2019-01-25T19:40:44.079Z,95429.45
2019-01-25T19:43:15.674Z,95432.67
2019-01-25T19:45:47.281Z,95434.16
2019-01-25T19:48:20.643Z,95433.39
2019-01-25T19:50:53.431Z,95435.32
2019-01-25T19:53:24.980Z,95427.52
2019-01-25T19:55:56.380Z,95421.77
2019-01-25T19:58:27.898Z,95421.03
2019-01-25T20:00:59.433Z,95423.96
2019-01-25T20:03:30.976Z,95428.53
2019-01-25T20:06:02.680Z,95428.84
2019-01-25T20:08:34.212Z,95429.91
2019-01-25T20:11:05.778Z,95423.76
2019-01-25T20:13:37.494Z,95428.69
2019-01-25T20:16:09.950Z,95427.97
2019-01-25T20:18:42.430Z,95416.41
2019-01-25T20:21:13.931Z,95414.34
2019-01-25T20:23:45.467Z,95421.96
2019-01-25T20:26:16.951Z,95429.91
2019-01-25T20:28:48.450Z,95425.71
2019-01-25T20:31:19.996Z,95426.25
2019-01-25T20:33:51.511Z,95415.14
2019-01-25T20:36:23.110Z,95408.82
2019-01-25T20:38:54.622Z,95411.81
2019-01-25T20:41:26.110Z,95410.20
2019-01-25T20:44:01.795Z,95407.48
2019-01-25T20:46:33.854Z,95415.66
2019-01-25T20:49:05.526Z,95409.91
2019-01-25T20:51:36.978Z,95418.06
2019-01-25T20:54:08.454Z,95414.20
2019-01-25T20:56:40.118Z,95416.06
2019-01-25T20:59:11.560Z,95408.53
2019-01-25T21:01:44.998Z,95408.40
2019-01-25T21:04:16.920Z,95418.80
2019-01-25T21:06:48.394Z,95418.42
2019-01-25T21:09:19.797Z,95416.75
2019-01-25T21:11:51.287Z,95416.75
2019-01-25T21:14:22.725Z,95413.78
2019-01-25T21:16:54.195Z,95407.84
2019-01-25T21:19:25.626Z,95401.06
2019-01-25T21:21:57.994Z,95399.25
2019-01-25T21:24:29.433Z,95400.66
2019-01-25T21:27:00.821Z,95411.49
2019-01-25T21:29:34.991Z,95404.39
2019-01-25T21:32:06.464Z,95400.15
2019-01-25T21:34:37.967Z,95398.34
2019-01-25T21:37:09.413Z,95381.09
2019-01-25T21:39:42.090Z,95384.66
2019-01-25T21:42:13.581Z,95383.64
2019-01-25T21:44:44.999Z,95380.16
2019-01-25T21:47:17.659Z,95385.55
2019-01-25T21:49:49.097Z,95373.17
2019-01-25T21:52:20.555Z,95369.55
2019-01-25T21:54:52.019Z,95366.29
2019-01-25T21:57:23.520Z,95373.23
2019-01-25T21:59:56.071Z,95362.81
2019-01-25T22:02:30.615Z,95358.09
2019-01-25T22:05:02.061Z,95352.84
2019-01-25T22:07:36.022Z,95337.51
2019-01-25T22:10:12.937Z,95339.45
2019-01-25T22:12:44.608Z,95346.03
2019-01-25T22:15:18.998Z,95349.05
2019-01-25T22:17:50.766Z,95345.11
2019-01-25T22:20:28.044Z,95344.81
2019-01-25T22:22:59.472Z,95338.92
2019-01-25T22:25:32.227Z,95343.11
2019-01-25T22:28:04.656Z,95342.48
2019-01-25T22:30:36.156Z,95337.55
2019-01-25T22:33:07.693Z,95334.70
2019-01-25T22:35:39.143Z,95336.70
2019-01-25T22:38:12.354Z,95343.59
2019-01-25T22:40:43.801Z,95340.78
2019-01-25T22:43:15.279Z,95340.72
2019-01-25T22:45:46.724Z,95334.48
2019-01-25T22:48:18.172Z,95336.68
2019-01-25T22:50:49.616Z,95330.34
2019-01-25T22:53:21.116Z,95326.04
2019-01-25T22:55:52.567Z,95314.88
2019-01-25T22:58:24.025Z,95311.33
2019-01-25T23:01:29.482Z,95311.67
2019-01-25T23:05:12.364Z,95312.94
2019-01-25T23:07:43.870Z,95310.78
2019-01-25T23:10:23.017Z,95303.53
2019-01-25T23:12:58.300Z,95302.75
2019-01-25T23:15:29.776Z,95303.59
2019-01-25T23:18:01.200Z,95306.77
2019-01-25T23:20:34.283Z,95291.71
2019-01-25T23:23:05.734Z,95290.19
2019-01-25T23:25:37.202Z,95293.77
2019-01-25T23:28:11.770Z,95288.59
2019-01-25T23:30:43.160Z,95280.89
2019-01-25T23:33:14.612Z,95286.16
2019-01-25T23:35:46.174Z,95281.57
2019-01-25T23:38:18.917Z,95279.91
2019-01-25T23:40:50.363Z,95271.98
2019-01-25T23:43:21.793Z,95276.48
2019-01-25T23:45:53.231Z,95265.45
2019-01-25T23:48:24.680Z,95269.34
2019-01-25T23:50:56.148Z,95274.22
2019-01-25T23:53:29.205Z,95268.59
2019-01-25T23:56:00.631Z,95260.45
2019-01-25T23:58:32.105Z,95268.14
